Time;durP1;ratioP1;P1;durP2;ratioP2;P2;SDS_P1;SDS_P2;PMS_P1;PMS_P2;Temp;Humidity;BMP_temperature;BMP_pressure;BME280_temperature;BME280_humidity;BME280_pressure;Samples;Min_cycle;Max_cycle;Signal;HPM_P1;HPM_P2
2022/07/07 00:01:21;;;;;;;;;;;18.00;99.90;;;;;;5067879;28;19928;-72
2022/07/07 00:03:48;;;;;;;;;;;18.10;99.90;;;;;;5069447;28;19939;-72
2022/07/07 00:06:15;;;;;;;;;;;18.10;99.90;;;;;;5065724;28;19982;-72
2022/07/07 00:08:42;;;;;;;;;;;18.10;99.90;;;;;;5065331;28;19925;-71
2022/07/07 00:11:10;;;;;;;;;;;18.10;99.90;;;;;;5064285;28;20359;-71
2022/07/07 00:13:37;;;;;;;;;;;18.10;99.90;;;;;;5068613;28;19928;-72
2022/07/07 00:16:04;;;;;;;;;;;18.10;99.90;;;;;;5067278;28;19924;-71
2022/07/07 00:18:31;;;;;;;;;;;18.20;99.90;;;;;;5066062;28;20327;-71
2022/07/07 00:20:57;;;;;;;;;;;18.10;99.90;;;;;;5068518;28;20466;-70
2022/07/07 00:23:24;;;;;;;;;;;18.10;99.90;;;;;;5071019;28;20011;-71
2022/07/07 00:25:51;;;;;;;;;;;18.10;99.90;;;;;;5070123;28;20415;-71
2022/07/07 00:28:19;;;;;;;;;;;18.20;99.90;;;;;;5069171;28;19956;-71
2022/07/07 00:30:45;;;;;;;;;;;18.20;99.90;;;;;;5068445;28;20015;-72
2022/07/07 00:33:12;;;;;;;;;;;18.10;99.90;;;;;;5068262;28;20388;-73
2022/07/07 00:35:39;;;;;;;;;;;18.10;99.90;;;;;;5065017;28;20015;-73
2022/07/07 00:38:05;;;;;;;;;;;18.20;99.90;;;;;;5068215;28;20032;-73
2022/07/07 00:40:32;;;;;;;;;;;18.20;99.90;;;;;;5069892;28;19952;-73
2022/07/07 00:42:59;;;;;;;;;;;18.20;99.90;;;;;;5071852;28;19964;-73
2022/07/07 00:45:27;;;;;;;;;;;18.30;99.90;;;;;;5071794;28;19963;-73
2022/07/07 00:47:54;;;;;;;;;;;18.30;99.90;;;;;;5068683;28;20372;-73
2022/07/07 00:50:20;;;;;;;;;;;18.20;99.90;;;;;;5062817;28;19959;-74
2022/07/07 00:52:47;;;;;;;;;;;18.20;99.90;;;;;;5072088;28;20347;-73
2022/07/07 00:55:14;;;;;;;;;;;18.30;99.90;;;;;;5070727;28;20035;-72
2022/07/07 00:57:41;;;;;;;;;;;18.30;99.90;;;;;;5071289;28;20039;-72
2022/07/07 01:00:11;;;;;;;;;;;18.20;99.90;;;;;;5069925;28;19956;-73
2022/07/07 01:02:39;;;;;;;;;;;18.20;99.90;;;;;;5071202;28;20426;-72
2022/07/07 01:05:06;;;;;;;;;;;18.20;99.90;;;;;;5065710;28;20667;-71
2022/07/07 01:07:34;;;;;;;;;;;18.20;99.90;;;;;;5069157;28;20042;-70
2022/07/07 01:10:01;;;;;;;;;;;18.40;99.90;;;;;;5064554;28;19930;-71
2022/07/07 01:12:33;;;;;;;;;;;18.20;99.90;;;;;;5071385;28;20439;-71
2022/07/07 01:14:59;;;;;;;;;;;18.20;99.90;;;;;;5067113;28;19970;-72
2022/07/07 01:17:26;;;;;;;;;;;18.20;99.90;;;;;;5065441;28;20020;-71
2022/07/07 01:19:54;;;;;;;;;;;18.10;99.90;;;;;;5067976;28;20007;-71
2022/07/07 01:22:23;;;;;;;;;;;18.20;99.90;;;;;;5072449;28;20395;-71
2022/07/07 01:24:51;;;;;;;;;;;18.20;99.90;;;;;;5070435;28;20027;-71
2022/07/07 01:27:19;;;;;;;;;;;18.10;99.90;;;;;;5067931;28;20059;-70
2022/07/07 01:29:46;;;;;;;;;;;18.20;99.90;;;;;;5065692;28;20560;-71
2022/07/07 01:32:13;;;;;;;;;;;18.10;99.90;;;;;;5069425;28;19929;-71
2022/07/07 01:34:41;;;;;;;;;;;18.10;99.90;;;;;;5070605;28;20347;-71
2022/07/07 01:37:08;;;;;;;;;;;18.10;99.90;;;;;;5068210;28;19931;-70
2022/07/07 01:39:35;;;;;;;;;;;18.10;99.90;;;;;;5066611;28;19925;-71
2022/07/07 01:42:03;;;;;;;;;;;18.10;99.90;;;;;;5061689;28;20013;-71
2022/07/07 01:44:31;;;;;;;;;;;18.00;99.90;;;;;;5070402;28;20356;-70
2022/07/07 01:46:58;;;;;;;;;;;18.10;99.90;;;;;;5066898;28;20379;-70
2022/07/07 01:49:25;;;;;;;;;;;18.10;99.90;;;;;;5070575;28;19931;-70
2022/07/07 01:51:51;;;;;;;;;;;18.00;99.90;;;;;;5062200;28;20419;-69
2022/07/07 01:54:18;;;;;;;;;;;18.00;99.90;;;;;;5068444;28;20019;-70
2022/07/07 01:56:45;;;;;;;;;;;18.00;99.90;;;;;;5061451;28;19978;-70
2022/07/07 01:59:14;;;;;;;;;;;18.10;99.90;;;;;;5069021;28;19924;-70
2022/07/07 02:01:40;;;;;;;;;;;18.30;99.90;;;;;;5066248;28;19929;-70
2022/07/07 02:04:07;;;;;;;;;;;18.10;99.90;;;;;;5069164;28;20016;-72
2022/07/07 02:06:34;;;;;;;;;;;18.10;99.90;;;;;;5065557;28;20014;-71
2022/07/07 02:09:01;;;;;;;;;;;18.10;99.90;;;;;;5068912;28;20019;-71
2022/07/07 02:11:28;;;;;;;;;;;18.10;99.90;;;;;;5068701;28;19924;-71
2022/07/07 02:13:55;;;;;;;;;;;18.10;99.90;;;;;;5070630;28;20420;-72
2022/07/07 02:16:23;;;;;;;;;;;18.10;99.90;;;;;;5067260;28;20015;-71
2022/07/07 02:18:53;;;;;;;;;;;18.10;99.90;;;;;;5064779;28;20423;-71
2022/07/07 02:21:20;;;;;;;;;;;18.00;99.90;;;;;;5067759;28;20338;-71
2022/07/07 02:23:48;;;;;;;;;;;17.70;99.90;;;;;;5067866;28;20391;-71
2022/07/07 02:26:15;;;;;;;;;;;18.10;99.90;;;;;;5064038;28;19924;-71
2022/07/07 02:28:42;;;;;;;;;;;18.10;99.90;;;;;;5068589;28;19960;-72
2022/07/07 02:31:09;;;;;;;;;;;18.10;99.90;;;;;;5063277;28;20058;-71
2022/07/07 02:33:38;;;;;;;;;;;18.00;99.90;;;;;;5065669;28;20015;-72
2022/07/07 02:36:05;;;;;;;;;;;18.00;99.90;;;;;;5063039;28;19967;-71
2022/07/07 02:38:32;;;;;;;;;;;18.00;99.90;;;;;;5068192;28;19930;-71
2022/07/07 02:40:58;;;;;;;;;;;18.00;99.90;;;;;;5066655;28;19978;-72
2022/07/07 02:43:25;;;;;;;;;;;18.00;99.90;;;;;;5068162;28;19924;-72
2022/07/07 02:45:53;;;;;;;;;;;18.00;99.90;;;;;;5065811;28;20350;-72
2022/07/07 02:48:20;;;;;;;;;;;18.00;99.90;;;;;;5067577;28;19981;-71
2022/07/07 02:50:48;;;;;;;;;;;18.10;99.90;;;;;;5065232;28;20019;-71
2022/07/07 02:53:15;;;;;;;;;;;18.10;99.90;;;;;;5067480;28;20299;-71
2022/07/07 02:55:42;;;;;;;;;;;18.10;99.90;;;;;;5062733;28;20008;-73
2022/07/07 02:58:09;;;;;;;;;;;18.10;99.90;;;;;;5068676;28;20293;-72
2022/07/07 03:00:36;;;;;;;;;;;18.00;99.90;;;;;;5066824;28;19924;-72
2022/07/07 03:03:04;;;;;;;;;;;18.00;99.90;;;;;;5069017;28;19963;-73
2022/07/07 03:05:31;;;;;;;;;;;18.00;99.90;;;;;;5067505;28;19924;-72
2022/07/07 03:07:59;;;;;;;;;;;18.00;99.90;;;;;;5068016;28;20019;-71
2022/07/07 03:10:26;;;;;;;;;;;18.00;99.90;;;;;;5068236;28;19987;-71
2022/07/07 03:12:53;;;;;;;;;;;18.00;99.90;;;;;;5069802;28;19963;-71
2022/07/07 03:15:20;;;;;;;;;;;18.10;99.90;;;;;;5069386;28;19956;-72
2022/07/07 03:17:48;;;;;;;;;;;18.10;99.90;;;;;;5069051;28;19931;-72
2022/07/07 03:20:16;;;;;;;;;;;18.10;99.90;;;;;;5067715;28;19979;-72
2022/07/07 03:22:44;;;;;;;;;;;18.10;99.90;;;;;;5068583;28;21367;-71
2022/07/07 03:25:13;;;;;;;;;;;18.00;99.90;;;;;;5066829;28;20462;-72
2022/07/07 03:27:40;;;;;;;;;;;18.10;99.90;;;;;;5066892;28;19983;-72
2022/07/07 03:30:07;;;;;;;;;;;18.10;99.90;;;;;;5067904;28;20020;-72
2022/07/07 03:32:34;;;;;;;;;;;18.10;99.90;;;;;;5067496;28;20007;-72
2022/07/07 03:35:01;;;;;;;;;;;18.10;99.90;;;;;;5064548;28;20002;-72
2022/07/07 03:37:29;;;;;;;;;;;18.10;99.90;;;;;;5067630;28;19928;-72
2022/07/07 03:39:56;;;;;;;;;;;18.10;99.90;;;;;;5068901;28;20019;-72
2022/07/07 03:42:24;;;;;;;;;;;18.10;99.90;;;;;;5063100;28;19972;-73
2022/07/07 03:44:50;;;;;;;;;;;18.20;99.90;;;;;;5067182;28;20699;-73
2022/07/07 03:47:17;;;;;;;;;;;18.20;99.90;;;;;;5068740;28;20451;-73
2022/07/07 03:49:44;;;;;;;;;;;18.20;99.90;;;;;;5066959;28;19940;-73
2022/07/07 03:52:11;;;;;;;;;;;18.20;99.90;;;;;;5064774;28;19924;-73
2022/07/07 03:54:38;;;;;;;;;;;18.30;99.90;;;;;;5070952;28;20422;-73
2022/07/07 03:57:05;;;;;;;;;;;18.30;99.90;;;;;;5071267;28;19960;-73
2022/07/07 03:59:33;;;;;;;;;;;18.30;99.90;;;;;;5072327;28;21940;-73
2022/07/07 04:02:00;;;;;;;;;;;18.30;99.90;;;;;;5068285;28;20023;-72
2022/07/07 04:04:27;;;;;;;;;;;18.00;99.90;;;;;;5072128;28;19925;-73
2022/07/07 04:06:53;;;;;;;;;;;17.80;99.90;;;;;;5070794;28;19928;-72
2022/07/07 04:09:20;;;;;;;;;;;17.70;99.90;;;;;;5072168;28;20014;-72
2022/07/07 04:11:47;;;;;;;;;;;17.60;99.90;;;;;;5071529;28;20016;-72
2022/07/07 04:14:13;;;;;;;;;;;17.50;99.90;;;;;;5073953;28;19924;-72
2022/07/07 04:16:41;;;;;;;;;;;17.40;99.90;;;;;;5069775;28;19924;-71
2022/07/07 04:19:08;;;;;;;;;;;;;;;;;;5072673;28;20038;-72
2022/07/07 04:21:35;;;;;;;;;;;;;;;;;;5066271;28;20003;-72
2022/07/07 04:24:02;;;;;;;;;;;;;;;;;;5072664;28;20019;-73
2022/07/07 04:26:29;;;;;;;;;;;;;;;;;;5068295;28;20056;-72
2022/07/07 04:28:56;;;;;;;;;;;;;;;;;;5072088;28;20330;-72
2022/07/07 04:31:23;;;;;;;;;;;;;;;;;;5067631;28;20276;-72
2022/07/07 04:33:50;;;;;;;;;;;;;;;;;;5067639;28;20324;-70
2022/07/07 04:36:17;;;;;;;;;;;;;;;;;;5068945;28;19960;-72
2022/07/07 04:38:44;;;;;;;;;;;;;;;;;;5069326;28;19924;-72
2022/07/07 04:41:11;;;;;;;;;;;;;;;;;;5068374;28;20022;-73
2022/07/07 04:43:38;;;;;;;;;;;;;;;;;;5069441;28;20452;-72
2022/07/07 04:46:05;;;;;;;;;;;;;;;;;;5070764;28;20023;-72
2022/07/07 04:48:32;;;;;;;;;;;;;;;;;;5067912;28;20441;-72
2022/07/07 04:50:59;;;;;;;;;;;;;;;;;;5067057;28;19932;-73
2022/07/07 04:53:26;;;;;;;;;;;;;;;;;;5071227;28;20333;-73
2022/07/07 04:55:53;;;;;;;;;;;;;;;;;;5066196;28;20383;-73
2022/07/07 04:58:20;;;;;;;;;;;;;;;;;;5068242;28;19987;-72
2022/07/07 05:00:47;;;;;;;;;;;;;;;;;;5070011;28;20298;-71
2022/07/07 05:03:15;;;;;;;;;;;17.90;99.90;;;;;;5068543;28;19963;-72
2022/07/07 05:05:42;;;;;;;;;;;17.90;99.90;;;;;;5068051;28;20015;-72
2022/07/07 05:08:08;;;;;;;;;;;17.80;99.90;;;;;;5071370;28;19980;-73
2022/07/07 05:10:35;;;;;;;;;;;17.80;99.90;;;;;;5069798;28;19971;-72
2022/07/07 05:13:02;;;;;;;;;;;17.80;99.90;;;;;;5070670;28;20019;-72
2022/07/07 05:15:28;;;;;;;;;;;17.80;99.90;;;;;;5069087;28;19962;-72
2022/07/07 05:17:55;;;;;;;;;;;17.90;99.90;;;;;;5071185;28;20015;-71
2022/07/07 05:20:23;;;;;;;;;;;17.90;99.90;;;;;;5068651;28;19956;-73
2022/07/07 05:22:50;;;;;;;;;;;17.90;99.90;;;;;;5064474;28;19932;-73
2022/07/07 05:25:17;;;;;;;;;;;17.90;99.90;;;;;;5068750;28;20014;-72
2022/07/07 05:27:44;;;;;;;;;;;17.90;99.90;;;;;;5068702;28;20453;-73
2022/07/07 05:30:11;;;;;;;;;;;17.80;99.90;;;;;;5068830;28;20659;-73
2022/07/07 05:32:38;;;;;;;;;;;17.10;99.90;;;;;;5068432;28;19968;-73
2022/07/07 05:35:05;;;;;;;;;;;16.90;99.90;;;;;;5065763;28;19983;-72
2022/07/07 05:37:33;;;;;;;;;;;16.80;99.90;;;;;;5065827;28;19972;-73
2022/07/07 05:40:00;;;;;;;;;;;16.90;99.90;;;;;;5063114;28;20019;-73
2022/07/07 05:42:27;;;;;;;;;;;16.90;99.90;;;;;;5065579;28;20024;-74
2022/07/07 05:44:54;;;;;;;;;;;17.10;99.90;;;;;;5065456;28;19956;-73
2022/07/07 05:47:20;;;;;;;;;;;17.10;99.90;;;;;;5063591;28;20404;-73
2022/07/07 05:49:47;;;;;;;;;;;;;;;;;;5060590;28;20003;-72
2022/07/07 05:52:14;;;;;;;;;;;17.10;99.90;;;;;;5061289;28;19940;-73
2022/07/07 05:54:42;;;;;;;;;;;17.00;99.90;;;;;;5062104;28;20019;-73
2022/07/07 05:57:09;;;;;;;;;;;17.10;99.90;;;;;;5057525;28;20320;-72
2022/07/07 05:59:36;;;;;;;;;;;17.30;99.90;;;;;;5062348;28;20295;-74
2022/07/07 06:02:02;;;;;;;;;;;17.40;99.90;;;;;;5058942;28;19946;-73
2022/07/07 06:04:29;;;;;;;;;;;17.40;99.90;;;;;;5066600;28;19932;-73
2022/07/07 06:06:56;;;;;;;;;;;17.50;99.90;;;;;;5059533;28;19936;-74
2022/07/07 06:09:23;;;;;;;;;;;17.60;99.90;;;;;;5060827;28;20019;-72
2022/07/07 06:11:51;;;;;;;;;;;17.70;99.90;;;;;;5063003;28;19929;-73
2022/07/07 06:14:18;;;;;;;;;;;18.00;99.90;;;;;;5060889;28;19975;-73
2022/07/07 06:16:45;;;;;;;;;;;18.30;99.90;;;;;;5060697;28;20011;-73
2022/07/07 06:19:12;;;;;;;;;;;18.80;99.90;;;;;;5060374;28;19932;-73
2022/07/07 06:21:40;;;;;;;;;;;19.90;99.90;;;;;;5064570;28;20322;-73
2022/07/07 06:24:07;;;;;;;;;;;19.80;99.90;;;;;;5065567;28;19967;-73
2022/07/07 06:26:33;;;;;;;;;;;20.10;99.90;;;;;;5068052;28;19975;-72
2022/07/07 06:29:01;;;;;;;;;;;19.80;99.90;;;;;;5065311;28;19931;-73
2022/07/07 06:31:28;;;;;;;;;;;19.30;99.90;;;;;;5067594;28;20015;-72
2022/07/07 06:33:55;;;;;;;;;;;19.40;99.90;;;;;;5066903;28;20431;-73
2022/07/07 06:36:22;;;;;;;;;;;19.30;99.90;;;;;;5063271;28;19933;-72
2022/07/07 06:38:48;;;;;;;;;;;19.80;99.90;;;;;;5067324;28;19985;-72
2022/07/07 06:41:16;;;;;;;;;;;20.40;99.90;;;;;;5065571;28;20015;-71
2022/07/07 06:43:43;;;;;;;;;;;20.70;99.90;;;;;;5066819;28;19960;-72
2022/07/07 06:46:11;;;;;;;;;;;20.20;99.90;;;;;;5065092;28;19930;-72
2022/07/07 06:48:38;;;;;;;;;;;20.00;99.90;;;;;;5060712;28;20466;-72
2022/07/07 06:51:04;;;;;;;;;;;19.80;99.90;;;;;;5062505;28;20031;-72
2022/07/07 06:53:32;;;;;;;;;;;;;;;;;;5068711;28;20011;-72
2022/07/07 06:55:58;;;;;;;;;;;18.90;99.90;;;;;;5069524;28;20032;-72
2022/07/07 06:58:25;;;;;;;;;;;18.50;99.90;;;;;;5062690;28;19924;-72
2022/07/07 07:00:52;;;;;;;;;;;18.30;99.90;;;;;;5063595;28;20018;-72
2022/07/07 07:03:20;;;;;;;;;;;18.40;99.90;;;;;;5058321;28;20011;-73
2022/07/07 07:05:47;;;;;;;;;;;18.70;99.90;;;;;;5055947;28;20072;-72
2022/07/07 07:08:14;;;;;;;;;;;18.60;99.90;;;;;;5062746;28;20030;-72
2022/07/07 07:10:40;;;;;;;;;;;19.00;99.90;;;;;;5060618;28;19943;-72
2022/07/07 07:13:07;;;;;;;;;;;19.60;99.90;;;;;;5063612;28;20030;-72
2022/07/07 07:15:34;;;;;;;;;;;20.00;99.90;;;;;;5057397;28;19932;-72
2022/07/07 07:18:01;;;;;;;;;;;20.40;99.90;;;;;;5059255;28;19968;-72
2022/07/07 07:20:29;;;;;;;;;;;20.30;99.90;;;;;;5058695;28;19940;-72
2022/07/07 07:22:57;;;;;;;;;;;20.50;99.90;;;;;;5055595;28;19925;-72
2022/07/07 07:25:24;;;;;;;;;;;21.00;99.90;;;;;;5052152;28;19933;-71
2022/07/07 07:27:50;;;;;;;;;;;21.90;99.90;;;;;;5057335;28;20007;-72
2022/07/07 07:30:17;;;;;;;;;;;23.90;99.90;;;;;;5060978;28;19928;-72
2022/07/07 07:32:44;;;;;;;;;;;24.00;99.90;;;;;;5060310;28;19939;-71
2022/07/07 07:35:11;;;;;;;;;;;24.00;99.90;;;;;;5058657;28;19976;-71
2022/07/07 07:37:41;;;;;;;;;;;22.50;99.90;;;;;;5059441;28;20044;-72
2022/07/07 07:40:08;;;;;;;;;;;21.30;99.90;;;;;;5056331;28;20851;-71
2022/07/07 07:42:35;;;;;;;;;;;20.20;99.90;;;;;;5057973;28;20395;-70
2022/07/07 07:45:11;;;;;;;;;;;20.20;99.90;;;;;;5063380;28;19924;-69
2022/07/07 07:47:38;;;;;;;;;;;20.00;99.90;;;;;;5059976;28;19931;-71
2022/07/07 07:50:05;;;;;;;;;;;20.90;99.90;;;;;;5062021;28;20528;-70
2022/07/07 07:52:32;;;;;;;;;;;21.60;99.90;;;;;;5061260;28;19932;-69
2022/07/07 07:55:00;;;;;;;;;;;22.70;99.90;;;;;;5063046;28;20015;-69
2022/07/07 07:57:27;;;;;;;;;;;22.80;99.90;;;;;;5062801;28;20015;-69
2022/07/07 07:59:54;;;;;;;;;;;23.50;99.90;;;;;;5060475;28;20031;-72
2022/07/07 08:02:20;;;;;;;;;;;23.60;99.90;;;;;;5061713;28;19925;-72
2022/07/07 08:04:47;;;;;;;;;;;23.60;99.90;;;;;;5062193;28;20051;-72
2022/07/07 08:07:14;;;;;;;;;;;22.80;99.90;;;;;;5059609;28;20426;-69
2022/07/07 08:09:41;;;;;;;;;;;21.70;99.90;;;;;;5054684;28;19982;-70
2022/07/07 08:12:09;;;;;;;;;;;20.90;99.90;;;;;;5054699;28;19925;-70
2022/07/07 08:14:36;;;;;;;;;;;20.50;99.90;;;;;;5068350;28;19963;-70
2022/07/07 08:17:03;;;;;;;;;;;20.00;99.90;;;;;;5062808;28;19924;-70
2022/07/07 08:19:29;;;;;;;;;;;19.80;99.90;;;;;;5064675;28;19925;-70
2022/07/07 08:21:56;;;;;;;;;;;19.80;99.90;;;;;;5058379;28;19962;-70
2022/07/07 08:24:23;;;;;;;;;;;20.10;99.90;;;;;;5062724;28;19929;-69
2022/07/07 08:26:50;;;;;;;;;;;20.00;99.90;;;;;;5054438;28;19928;-70
2022/07/07 08:29:18;;;;;;;;;;;20.20;99.90;;;;;;5064423;28;20413;-72
2022/07/07 08:31:45;;;;;;;;;;;20.40;99.90;;;;;;5056629;28;19931;-73
2022/07/07 08:34:11;;;;;;;;;;;19.90;99.90;;;;;;5056359;28;20049;-72
2022/07/07 08:36:38;;;;;;;;;;;19.30;99.90;;;;;;5052785;28;20342;-73
2022/07/07 08:39:05;;;;;;;;;;;18.60;99.90;;;;;;5055940;28;20030;-73
2022/07/07 08:41:32;;;;;;;;;;;18.20;99.90;;;;;;5054652;28;20028;-73
2022/07/07 08:43:59;;;;;;;;;;;18.20;99.90;;;;;;5060261;28;19946;-73
2022/07/07 08:46:27;;;;;;;;;;;18.10;99.90;;;;;;5063011;28;20387;-73
2022/07/07 08:48:54;;;;;;;;;;;18.10;99.90;;;;;;5060665;28;19994;-71
2022/07/07 08:51:21;;;;;;;;;;;18.20;99.90;;;;;;5059892;28;19928;-73
2022/07/07 08:53:48;;;;;;;;;;;18.40;99.90;;;;;;5062403;28;19930;-74
2022/07/07 08:56:15;;;;;;;;;;;18.70;99.90;;;;;;5061353;28;19928;-73
2022/07/07 08:58:43;;;;;;;;;;;19.40;99.90;;;;;;5063985;28;20031;-72
2022/07/07 09:01:09;;;;;;;;;;;20.70;99.90;;;;;;5059366;28;19929;-70
2022/07/07 09:03:38;;;;;;;;;;;21.30;99.90;;;;;;5062411;28;20391;-71
2022/07/07 09:06:07;;;;;;;;;;;22.10;99.90;;;;;;5062342;28;19925;-70
2022/07/07 09:08:34;;;;;;;;;;;23.60;99.90;;;;;;5060658;28;19925;-71
2022/07/07 09:11:00;;;;;;;;;;;24.60;99.90;;;;;;5063478;28;19933;-71
2022/07/07 09:13:28;;;;;;;;;;;24.40;99.90;;;;;;5057728;28;19930;-69
2022/07/07 09:15:55;;;;;;;;;;;23.10;99.90;;;;;;5061777;28;20031;-69
2022/07/07 09:18:29;;;;;;;;;;;21.70;99.90;;;;;;5057464;28;20368;-69
2022/07/07 09:20:57;;;;;;;;;;;20.80;99.90;;;;;;5060119;28;20282;-70
2022/07/07 09:23:24;;;;;;;;;;;20.60;99.90;;;;;;5059084;28;20641;-70
2022/07/07 09:25:51;;;;;;;;;;;20.00;99.90;;;;;;5063213;28;19930;-70
2022/07/07 09:28:18;;;;;;;;;;;19.80;99.90;;;;;;5067697;28;19956;-71
2022/07/07 09:30:45;;;;;;;;;;;19.40;99.90;;;;;;5059848;28;19938;-71
2022/07/07 09:33:12;;;;;;;;;;;18.90;99.90;;;;;;5054726;28;19987;-71
2022/07/07 09:38:28;;;;;;;;;;;17.90;99.90;;;;;;5057482;28;20473;-71
2022/07/07 09:40:58;;;;;;;;;;;17.50;99.90;;;;;;5056301;28;19990;-68
2022/07/07 09:43:25;;;;;;;;;;;17.50;99.90;;;;;;5056235;28;19940;-73
2022/07/07 09:46:12;;;;;;;;;;;17.40;99.90;;;;;;5053847;28;20006;-74
2022/07/07 09:48:40;;;;;;;;;;;17.40;99.90;;;;;;5047139;28;19955;-69
2022/07/07 09:51:11;;;;;;;;;;;17.60;99.90;;;;;;5058411;28;20023;-72
2022/07/07 09:53:52;;;;;;;;;;;17.80;99.90;;;;;;5052857;28;19970;-68
2022/07/07 09:56:20;;;;;;;;;;;17.90;99.90;;;;;;5056498;28;19958;-72
2022/07/07 09:58:47;;;;;;;;;;;18.80;99.90;;;;;;5050204;28;19944;-71
2022/07/07 10:01:14;;;;;;;;;;;19.20;99.90;;;;;;5052845;28;20373;-71
2022/07/07 10:03:42;;;;;;;;;;;19.00;99.90;;;;;;5054782;28;19933;-70
2022/07/07 10:06:10;;;;;;;;;;;19.00;99.90;;;;;;5056821;28;19928;-69
2022/07/07 10:08:42;;;;;;;;;;;19.40;99.90;;;;;;5060374;28;20279;-69
2022/07/07 10:11:10;;;;;;;;;;;19.80;99.90;;;;;;5064102;28;19943;-70
2022/07/07 10:13:38;;;;;;;;;;;20.40;99.90;;;;;;5062069;28;19924;-69
2022/07/07 10:16:05;;;;;;;;;;;21.20;99.90;;;;;;5057224;28;20055;-71
2022/07/07 10:18:32;;;;;;;;;;;21.10;99.90;;;;;;5066142;28;19925;-69
2022/07/07 10:20:59;;;;;;;;;;;20.90;99.90;;;;;;5058746;28;20055;-69
2022/07/07 10:23:26;;;;;;;;;;;20.20;99.90;;;;;;5064556;28;20019;-69
2022/07/07 10:26:00;;;;;;;;;;;19.90;99.90;;;;;;5059058;28;20062;-67
2022/07/07 10:28:41;;;;;;;;;;;19.50;99.90;;;;;;5054288;28;19955;-70
2022/07/07 10:31:20;;;;;;;;;;;18.70;99.90;;;;;;5056661;28;19939;-70
2022/07/07 10:33:51;;;;;;;;;;;18.10;99.90;;;;;;5058635;28;19960;-71
2022/07/07 10:36:17;;;;;;;;;;;17.90;99.90;;;;;;5052241;28;20000;-70
2022/07/07 10:38:44;;;;;;;;;;;18.00;99.90;;;;;;5055299;28;20055;-70
2022/07/07 10:41:11;;;;;;;;;;;18.40;99.90;;;;;;5052235;28;20439;-70
2022/07/07 10:43:42;;;;;;;;;;;18.70;99.90;;;;;;5055977;28;19979;-71
2022/07/07 10:46:09;;;;;;;;;;;19.30;99.90;;;;;;5049500;28;20019;-71
2022/07/07 10:48:57;;;;;;;;;;;19.40;99.90;;;;;;5057266;28;19932;-71
2022/07/07 10:51:25;;;;;;;;;;;20.20;99.90;;;;;;5049761;28;20106;-71
2022/07/07 10:53:55;;;;;;;;;;;20.80;99.90;;;;;;5046162;28;20047;-72
2022/07/07 10:56:22;;;;;;;;;;;20.60;99.90;;;;;;5051858;28;20457;-71
2022/07/07 10:58:53;;;;;;;;;;;20.50;99.90;;;;;;5051598;28;20390;-71
2022/07/07 11:01:19;;;;;;;;;;;20.00;99.90;;;;;;5051274;28;19932;-72
2022/07/07 11:03:46;;;;;;;;;;;19.80;99.90;;;;;;5051026;28;19933;-71
2022/07/07 11:06:13;;;;;;;;;;;19.30;99.90;;;;;;5053274;28;20470;-74
2022/07/07 11:08:41;;;;;;;;;;;17.80;99.90;;;;;;5055764;28;20395;-78
2022/07/07 11:11:08;;;;;;;;;;;17.30;99.90;;;;;;5053979;28;20401;-74
2022/07/07 11:13:36;;;;;;;;;;;17.60;99.90;;;;;;5051871;28;19929;-73
2022/07/07 11:16:10;;;;;;;;;;;18.10;99.90;;;;;;5051385;28;20491;-74
2022/07/07 11:18:37;;;;;;;;;;;18.40;99.90;;;;;;5052298;28;20089;-75
2022/07/07 11:21:06;;;;;;;;;;;18.70;99.90;;;;;;5046829;28;19951;-75
2022/07/07 11:23:48;;;;;;;;;;;19.10;99.90;;;;;;5050653;28;19924;-73
2022/07/07 11:26:19;;;;;;;;;;;19.80;99.90;;;;;;5052988;28;20035;-74
2022/07/07 11:28:46;;;;;;;;;;;20.30;99.90;;;;;;5052101;28;19924;-73
2022/07/07 11:31:13;;;;;;;;;;;20.60;99.90;;;;;;5045263;28;19924;-73
2022/07/07 11:33:40;;;;;;;;;;;20.60;99.90;;;;;;5050697;28;19935;-74
2022/07/07 11:36:11;;;;;;;;;;;20.60;99.90;;;;;;5047735;28;19924;-74
2022/07/07 11:38:38;;;;;;;;;;;20.20;99.90;;;;;;5054378;28;20466;-75
2022/07/07 11:41:06;;;;;;;;;;;19.70;99.90;;;;;;5055311;28;19986;-76
2022/07/07 11:43:33;;;;;;;;;;;19.00;99.90;;;;;;5058313;28;19924;-75
2022/07/07 11:46:00;;;;;;;;;;;18.90;99.90;;;;;;5055501;28;20064;-77
2022/07/07 11:48:32;;;;;;;;;;;18.50;99.90;;;;;;5053624;28;19963;-75
2022/07/07 11:50:59;;;;;;;;;;;18.60;99.90;;;;;;5056739;28;20011;-73
2022/07/07 11:53:26;;;;;;;;;;;19.00;99.90;;;;;;5056779;28;20416;-71
2022/07/07 11:55:52;;;;;;;;;;;19.50;99.90;;;;;;5057845;28;19970;-70
2022/07/07 11:58:21;;;;;;;;;;;20.00;99.90;;;;;;5061854;28;20013;-69
2022/07/07 12:00:47;;;;;;;;;;;20.30;99.90;;;;;;5062597;28;19990;-69
2022/07/07 12:03:14;;;;;;;;;;;20.00;99.90;;;;;;5064117;28;20029;-69
2022/07/07 12:05:45;;;;;;;;;;;20.00;99.90;;;;;;5058834;28;20454;-69
2022/07/07 12:08:12;;;;;;;;;;;20.00;99.90;;;;;;5063253;28;19924;-69
2022/07/07 12:10:40;;;;;;;;;;;19.40;99.90;;;;;;5064939;28;19943;-69
2022/07/07 12:13:07;;;;;;;;;;;19.00;99.90;;;;;;5063276;28;20333;-69
2022/07/07 12:15:38;;;;;;;;;;;19.20;99.90;;;;;;5067656;28;19932;-69
2022/07/07 12:18:05;;;;;;;;;;;19.80;99.90;;;;;;5061579;28;20349;-69
2022/07/07 12:20:33;;;;;;;;;;;20.30;99.90;;;;;;5063434;28;21457;-70
2022/07/07 12:23:00;;;;;;;;;;;20.60;99.90;;;;;;5061166;28;19990;-69
2022/07/07 12:25:28;;;;;;;;;;;20.50;99.90;;;;;;5062448;28;19986;-69
2022/07/07 12:27:55;;;;;;;;;;;20.50;99.90;;;;;;5065799;28;19924;-68
2022/07/07 12:30:22;;;;;;;;;;;20.60;99.90;;;;;;5055446;28;20008;-69
2022/07/07 12:32:50;;;;;;;;;;;20.60;99.90;;;;;;5059974;28;20459;-69
2022/07/07 12:35:27;;;;;;;;;;;20.60;99.90;;;;;;5059768;28;19967;-69
2022/07/07 12:37:53;;;;;;;;;;;20.50;99.90;;;;;;5053866;28;19933;-70
2022/07/07 12:40:22;;;;;;;;;;;20.40;99.90;;;;;;5050986;28;19951;-68
2022/07/07 12:42:49;;;;;;;;;;;20.10;99.90;;;;;;5051440;28;19982;-67
2022/07/07 12:45:17;;;;;;;;;;;20.00;99.90;;;;;;5050615;28;20025;-67
2022/07/07 12:47:46;;;;;;;;;;;19.30;99.90;;;;;;5050207;28;19982;-68
2022/07/07 12:50:14;;;;;;;;;;;18.90;99.90;;;;;;5047862;28;19932;-68
2022/07/07 12:52:41;;;;;;;;;;;19.10;99.90;;;;;;5051405;28;20021;-68
2022/07/07 12:55:09;;;;;;;;;;;19.40;99.90;;;;;;5047946;28;19939;-67
2022/07/07 12:57:35;;;;;;;;;;;19.70;99.90;;;;;;5046889;28;20140;-68
2022/07/07 13:00:02;;;;;;;;;;;19.90;99.90;;;;;;5052799;28;19929;-67
2022/07/07 13:02:29;;;;;;;;;;;20.30;99.90;;;;;;5050865;28;19928;-70
2022/07/07 13:04:56;;;;;;;;;;;20.70;99.90;;;;;;5052397;28;19933;-70
2022/07/07 13:07:24;;;;;;;;;;;20.70;99.90;;;;;;5049969;28;19962;-70
2022/07/07 13:09:51;;;;;;;;;;;20.60;99.90;;;;;;5047545;28;19928;-70
2022/07/07 13:12:18;;;;;;;;;;;20.30;99.90;;;;;;5050641;28;20821;-69
2022/07/07 13:14:45;;;;;;;;;;;20.20;99.90;;;;;;5047919;28;19928;-70
2022/07/07 13:17:12;;;;;;;;;;;20.10;99.90;;;;;;5047763;28;19933;-70
2022/07/07 13:19:38;;;;;;;;;;;20.10;99.90;;;;;;5047202;28;19932;-70
2022/07/07 13:22:05;;;;;;;;;;;20.20;99.90;;;;;;5050727;28;19935;-70
2022/07/07 13:24:33;;;;;;;;;;;19.60;99.90;;;;;;5043621;28;19939;-71
2022/07/07 13:27:00;;;;;;;;;;;19.40;99.90;;;;;;5049218;28;19940;-70
2022/07/07 13:29:27;;;;;;;;;;;19.30;99.90;;;;;;5049585;28;20085;-70
2022/07/07 13:31:54;;;;;;;;;;;19.50;99.90;;;;;;5049561;28;20055;-70
2022/07/07 13:34:21;;;;;;;;;;;19.50;99.90;;;;;;5047516;28;20026;-71
2022/07/07 13:36:48;;;;;;;;;;;19.00;99.90;;;;;;5045380;28;19929;-70
2022/07/07 13:39:15;;;;;;;;;;;18.60;99.90;;;;;;5048978;28;19935;-71
2022/07/07 13:41:43;;;;;;;;;;;18.10;99.90;;;;;;5049896;28;20029;-71
2022/07/07 13:44:10;;;;;;;;;;;17.80;99.90;;;;;;5046300;28;19925;-70
2022/07/07 13:46:36;;;;;;;;;;;17.80;99.90;;;;;;5048816;28;20029;-71
2022/07/07 13:49:03;;;;;;;;;;;18.20;99.90;;;;;;5048880;28;19932;-73
2022/07/07 13:51:30;;;;;;;;;;;18.30;99.90;;;;;;5049406;28;19968;-73
2022/07/07 13:53:56;;;;;;;;;;;18.50;99.90;;;;;;5048326;28;20474;-73
2022/07/07 13:56:23;;;;;;;;;;;18.60;99.90;;;;;;5047048;28;19929;-74
2022/07/07 13:58:52;;;;;;;;;;;18.60;99.90;;;;;;5048464;28;20532;-69
2022/07/07 14:01:19;;;;;;;;;;;18.80;99.90;;;;;;5048508;28;20015;-69
2022/07/07 14:03:46;;;;;;;;;;;19.30;99.90;;;;;;5048442;28;19925;-69
2022/07/07 14:06:12;;;;;;;;;;;19.40;99.90;;;;;;5047971;28;19939;-69
2022/07/07 14:08:39;;;;;;;;;;;19.70;99.90;;;;;;5049333;28;19928;-69
2022/07/07 14:11:07;;;;;;;;;;;19.70;99.90;;;;;;5049736;28;20067;-68
2022/07/07 14:13:34;;;;;;;;;;;19.60;99.90;;;;;;5057179;28;19933;-69
2022/07/07 14:16:02;;;;;;;;;;;19.50;99.90;;;;;;5051221;28;20716;-68
2022/07/07 14:18:29;;;;;;;;;;;19.60;99.90;;;;;;5048365;28;19934;-69
2022/07/07 14:20:56;;;;;;;;;;;19.90;99.90;;;;;;5051199;28;20513;-70
2022/07/07 14:23:22;;;;;;;;;;;20.60;99.90;;;;;;5047105;28;19929;-69
2022/07/07 14:25:49;;;;;;;;;;;20.60;99.90;;;;;;5049668;28;20023;-68
2022/07/07 14:28:16;;;;;;;;;;;20.60;99.90;;;;;;5047020;28;20025;-68